sensor_id;sensor_type;location;lat;lon;timestamp;P1;durP1;ratioP1;P2;durP2;ratioP2
1136;SDS011;557;48.466;7.950;2023-04-01T00:02:35;1.40;;;0.50;;
1136;SDS011;557;48.466;7.950;2023-04-01T00:05:22;2.50;;;0.57;;
1136;SDS011;557;48.466;7.950;2023-04-01T00:08:12;1.77;;;0.43;;
1136;SDS011;557;48.466;7.950;2023-04-01T00:10:59;1.90;;;0.80;;
1136;SDS011;557;48.466;7.950;2023-04-01T00:13:46;4.23;;;0.80;;
1136;SDS011;557;48.466;7.950;2023-04-01T00:16:34;1.10;;;0.40;;
1136;SDS011;557;48.466;7.950;2023-04-01T00:19:22;1.33;;;0.40;;
1136;SDS011;557;48.466;7.950;2023-04-01T00:22:10;1.40;;;0.50;;
1136;SDS011;557;48.466;7.950;2023-04-01T00:24:58;2.13;;;0.40;;
1136;SDS011;557;48.466;7.950;2023-04-01T00:27:46;7.17;;;0.70;;
1136;SDS011;557;48.466;7.950;2023-04-01T00:30:33;1.00;;;0.30;;
1136;SDS011;557;48.466;7.950;2023-04-01T00:33:22;1.40;;;0.50;;
1136;SDS011;557;48.466;7.950;2023-04-01T00:36:10;1.30;;;0.40;;
1136;SDS011;557;48.466;7.950;2023-04-01T00:38:58;1.40;;;0.50;;
1136;SDS011;557;48.466;7.950;2023-04-01T00:41:47;1.10;;;0.30;;
1136;SDS011;557;48.466;7.950;2023-04-01T00:44:36;1.00;;;0.30;;
1136;SDS011;557;48.466;7.950;2023-04-01T00:47:24;1.80;;;0.70;;
1136;SDS011;557;48.466;7.950;2023-04-01T00:50:13;1.10;;;0.30;;
1136;SDS011;557;48.466;7.950;2023-04-01T00:53:00;1.30;;;0.37;;
1136;SDS011;557;48.466;7.950;2023-04-01T00:55:50;4.43;;;0.70;;
1136;SDS011;557;48.466;7.950;2023-04-01T00:58:46;1.00;;;0.30;;
1136;SDS011;557;48.466;7.950;2023-04-01T01:01:36;1.20;;;0.43;;
1136;SDS011;557;48.466;7.950;2023-04-01T01:04:25;2.30;;;0.40;;
1136;SDS011;557;48.466;7.950;2023-04-01T01:07:17;1.10;;;0.40;;
1136;SDS011;557;48.466;7.950;2023-04-01T01:10:13;1.43;;;0.40;;
1136;SDS011;557;48.466;7.950;2023-04-01T01:13:07;1.53;;;0.40;;
1136;SDS011;557;48.466;7.950;2023-04-01T01:16:05;1.43;;;0.53;;
1136;SDS011;557;48.466;7.950;2023-04-01T01:19:01;1.93;;;0.50;;
1136;SDS011;557;48.466;7.950;2023-04-01T01:22:04;1.10;;;0.40;;
1136;SDS011;557;48.466;7.950;2023-04-01T01:25:10;1.77;;;0.50;;
1136;SDS011;557;48.466;7.950;2023-04-01T01:28:09;1.40;;;0.40;;
1136;SDS011;557;48.466;7.950;2023-04-01T01:31:14;1.20;;;0.50;;
1136;SDS011;557;48.466;7.950;2023-04-01T01:34:10;1.10;;;0.40;;
1136;SDS011;557;48.466;7.950;2023-04-01T01:37:07;2.40;;;0.47;;
1136;SDS011;557;48.466;7.950;2023-04-01T01:39:58;1.00;;;0.30;;
1136;SDS011;557;48.466;7.950;2023-04-01T01:42:49;2.80;;;0.60;;
1136;SDS011;557;48.466;7.950;2023-04-01T01:45:40;1.30;;;0.40;;
1136;SDS011;557;48.466;7.950;2023-04-01T01:48:33;1.20;;;0.30;;
1136;SDS011;557;48.466;7.950;2023-04-01T01:51:21;1.30;;;0.47;;
1136;SDS011;557;48.466;7.950;2023-04-01T01:54:13;1.40;;;0.40;;
1136;SDS011;557;48.466;7.950;2023-04-01T01:57:01;2.30;;;0.57;;
1136;SDS011;557;48.466;7.950;2023-04-01T01:59:54;1.53;;;0.50;;
1136;SDS011;557;48.466;7.950;2023-04-01T02:02:46;1.97;;;0.60;;
1136;SDS011;557;48.466;7.950;2023-04-01T02:05:35;1.93;;;0.40;;
1136;SDS011;557;48.466;7.950;2023-04-01T02:08:23;1.03;;;0.33;;
1136;SDS011;557;48.466;7.950;2023-04-01T02:11:16;2.20;;;0.47;;
1136;SDS011;557;48.466;7.950;2023-04-01T02:14:06;1.00;;;0.30;;
1136;SDS011;557;48.466;7.950;2023-04-01T02:16:57;1.30;;;0.30;;
1136;SDS011;557;48.466;7.950;2023-04-01T02:19:50;2.17;;;0.60;;
1136;SDS011;557;48.466;7.950;2023-04-01T02:22:40;1.10;;;0.40;;
1136;SDS011;557;48.466;7.950;2023-04-01T02:25:35;2.30;;;0.50;;
1136;SDS011;557;48.466;7.950;2023-04-01T02:28:25;1.30;;;0.67;;
1136;SDS011;557;48.466;7.950;2023-04-01T02:31:14;3.10;;;0.73;;
1136;SDS011;557;48.466;7.950;2023-04-01T02:34:03;1.50;;;0.53;;
1136;SDS011;557;48.466;7.950;2023-04-01T02:36:51;1.20;;;0.50;;
1136;SDS011;557;48.466;7.950;2023-04-01T02:39:39;1.83;;;0.40;;
1136;SDS011;557;48.466;7.950;2023-04-01T02:42:28;1.67;;;0.47;;
1136;SDS011;557;48.466;7.950;2023-04-01T02:45:17;2.03;;;0.47;;
1136;SDS011;557;48.466;7.950;2023-04-01T02:48:04;2.50;;;0.40;;
1136;SDS011;557;48.466;7.950;2023-04-01T02:50:52;1.50;;;0.50;;
1136;SDS011;557;48.466;7.950;2023-04-01T02:53:39;6.97;;;0.60;;
1136;SDS011;557;48.466;7.950;2023-04-01T02:56:27;4.80;;;0.97;;
1136;SDS011;557;48.466;7.950;2023-04-01T02:59:14;1.30;;;0.43;;
1136;SDS011;557;48.466;7.950;2023-04-01T03:02:03;1.67;;;0.50;;
1136;SDS011;557;48.466;7.950;2023-04-01T03:04:50;2.30;;;0.93;;
1136;SDS011;557;48.466;7.950;2023-04-01T03:07:38;3.30;;;0.73;;
1136;SDS011;557;48.466;7.950;2023-04-01T03:10:25;3.20;;;0.50;;
1136;SDS011;557;48.466;7.950;2023-04-01T03:13:12;2.80;;;0.73;;
1136;SDS011;557;48.466;7.950;2023-04-01T03:16:00;2.00;;;0.63;;
1136;SDS011;557;48.466;7.950;2023-04-01T03:18:49;5.93;;;0.90;;
1136;SDS011;557;48.466;7.950;2023-04-01T03:21:38;1.77;;;0.80;;
1136;SDS011;557;48.466;7.950;2023-04-01T03:24:25;4.17;;;1.10;;
1136;SDS011;557;48.466;7.950;2023-04-01T03:27:13;4.80;;;0.80;;
1136;SDS011;557;48.466;7.950;2023-04-01T03:30:00;3.43;;;0.80;;
1136;SDS011;557;48.466;7.950;2023-04-01T03:32:48;2.90;;;0.87;;
1136;SDS011;557;48.466;7.950;2023-04-01T03:35:36;1.80;;;0.80;;
1136;SDS011;557;48.466;7.950;2023-04-01T03:38:24;3.40;;;0.80;;
1136;SDS011;557;48.466;7.950;2023-04-01T03:41:11;2.00;;;0.70;;
1136;SDS011;557;48.466;7.950;2023-04-01T03:43:59;2.40;;;0.80;;
1136;SDS011;557;48.466;7.950;2023-04-01T03:46:47;1.40;;;0.60;;
1136;SDS011;557;48.466;7.950;2023-04-01T03:49:34;3.50;;;0.97;;
1136;SDS011;557;48.466;7.950;2023-04-01T03:52:23;2.60;;;0.60;;
1136;SDS011;557;48.466;7.950;2023-04-01T03:55:11;3.73;;;0.60;;
1136;SDS011;557;48.466;7.950;2023-04-01T03:57:58;1.30;;;0.50;;
1136;SDS011;557;48.466;7.950;2023-04-01T04:00:47;2.80;;;0.60;;
1136;SDS011;557;48.466;7.950;2023-04-01T04:03:34;1.23;;;0.50;;
1136;SDS011;557;48.466;7.950;2023-04-01T04:06:22;1.20;;;0.50;;
1136;SDS011;557;48.466;7.950;2023-04-01T04:09:11;1.20;;;0.40;;
1136;SDS011;557;48.466;7.950;2023-04-01T04:11:59;1.20;;;0.47;;
1136;SDS011;557;48.466;7.950;2023-04-01T04:14:46;3.33;;;0.67;;
1136;SDS011;557;48.466;7.950;2023-04-01T04:17:33;1.03;;;0.40;;
1136;SDS011;557;48.466;7.950;2023-04-01T04:20:21;1.30;;;0.60;;
1136;SDS011;557;48.466;7.950;2023-04-01T04:23:08;1.20;;;0.50;;
1136;SDS011;557;48.466;7.950;2023-04-01T04:25:58;1.30;;;0.50;;
1136;SDS011;557;48.466;7.950;2023-04-01T04:28:46;2.07;;;0.90;;
1136;SDS011;557;48.466;7.950;2023-04-01T04:31:34;3.73;;;1.03;;
1136;SDS011;557;48.466;7.950;2023-04-01T04:34:21;3.10;;;0.60;;
1136;SDS011;557;48.466;7.950;2023-04-01T04:37:09;2.93;;;0.60;;
1136;SDS011;557;48.466;7.950;2023-04-01T04:39:56;4.63;;;1.63;;
1136;SDS011;557;48.466;7.950;2023-04-01T04:42:45;2.07;;;0.67;;
1136;SDS011;557;48.466;7.950;2023-04-01T04:45:32;2.17;;;0.70;;
1136;SDS011;557;48.466;7.950;2023-04-01T04:48:20;4.13;;;0.83;;
1136;SDS011;557;48.466;7.950;2023-04-01T04:51:07;1.70;;;0.80;;
1136;SDS011;557;48.466;7.950;2023-04-01T04:53:54;2.37;;;1.23;;
1136;SDS011;557;48.466;7.950;2023-04-01T04:56:42;1.30;;;0.50;;
1136;SDS011;557;48.466;7.950;2023-04-01T04:59:30;2.23;;;0.50;;
1136;SDS011;557;48.466;7.950;2023-04-01T05:02:18;1.97;;;1.00;;
1136;SDS011;557;48.466;7.950;2023-04-01T05:05:05;1.67;;;0.73;;
1136;SDS011;557;48.466;7.950;2023-04-01T05:07:53;1.10;;;0.40;;
1136;SDS011;557;48.466;7.950;2023-04-01T05:10:41;1.40;;;0.60;;
1136;SDS011;557;48.466;7.950;2023-04-01T05:13:28;2.23;;;0.80;;
1136;SDS011;557;48.466;7.950;2023-04-01T05:16:17;2.37;;;0.60;;
1136;SDS011;557;48.466;7.950;2023-04-01T05:19:07;2.23;;;0.63;;
1136;SDS011;557;48.466;7.950;2023-04-01T05:21:54;2.00;;;0.60;;
1136;SDS011;557;48.466;7.950;2023-04-01T05:24:41;3.03;;;0.83;;
1136;SDS011;557;48.466;7.950;2023-04-01T05:27:29;2.00;;;0.87;;
1136;SDS011;557;48.466;7.950;2023-04-01T05:30:17;2.07;;;0.60;;
1136;SDS011;557;48.466;7.950;2023-04-01T05:33:06;1.57;;;0.60;;
1136;SDS011;557;48.466;7.950;2023-04-01T05:35:53;3.60;;;0.80;;
1136;SDS011;557;48.466;7.950;2023-04-01T05:38:41;1.83;;;0.80;;
1136;SDS011;557;48.466;7.950;2023-04-01T05:41:31;2.40;;;1.87;;
1136;SDS011;557;48.466;7.950;2023-04-01T05:44:21;1.30;;;0.50;;
1136;SDS011;557;48.466;7.950;2023-04-01T05:47:08;1.50;;;0.60;;
1136;SDS011;557;48.466;7.950;2023-04-01T05:49:57;1.90;;;0.60;;
1136;SDS011;557;48.466;7.950;2023-04-01T05:52:44;3.87;;;1.30;;
1136;SDS011;557;48.466;7.950;2023-04-01T05:55:34;3.00;;;1.10;;
1136;SDS011;557;48.466;7.950;2023-04-01T05:58:21;4.50;;;0.70;;
1136;SDS011;557;48.466;7.950;2023-04-01T06:01:09;1.87;;;0.80;;
1136;SDS011;557;48.466;7.950;2023-04-01T06:03:57;3.97;;;0.70;;
1136;SDS011;557;48.466;7.950;2023-04-01T06:06:46;1.80;;;0.60;;
1136;SDS011;557;48.466;7.950;2023-04-01T06:09:33;1.57;;;0.63;;
1136;SDS011;557;48.466;7.950;2023-04-01T06:12:29;5.70;;;0.70;;
1136;SDS011;557;48.466;7.950;2023-04-01T06:15:33;3.10;;;0.87;;
1136;SDS011;557;48.466;7.950;2023-04-01T06:18:35;1.93;;;0.80;;
1136;SDS011;557;48.466;7.950;2023-04-01T06:21:54;2.10;;;0.73;;
1136;SDS011;557;48.466;7.950;2023-04-01T06:25:02;2.00;;;0.60;;
1136;SDS011;557;48.466;7.950;2023-04-01T06:28:01;1.70;;;0.70;;
1136;SDS011;557;48.466;7.950;2023-04-01T06:31:24;3.57;;;0.50;;
1136;SDS011;557;48.466;7.950;2023-04-01T06:34:25;2.27;;;0.70;;
1136;SDS011;557;48.466;7.950;2023-04-01T06:37:39;1.50;;;0.63;;
1136;SDS011;557;48.466;7.950;2023-04-01T06:40:49;3.43;;;0.70;;
1136;SDS011;557;48.466;7.950;2023-04-01T06:43:50;2.40;;;0.87;;
1136;SDS011;557;48.466;7.950;2023-04-01T06:46:47;1.50;;;0.60;;
1136;SDS011;557;48.466;7.950;2023-04-01T06:49:42;3.47;;;1.27;;
1136;SDS011;557;48.466;7.950;2023-04-01T06:52:39;5.20;;;0.90;;
1136;SDS011;557;48.466;7.950;2023-04-01T06:55:35;4.97;;;0.90;;
1136;SDS011;557;48.466;7.950;2023-04-01T06:58:27;2.63;;;1.30;;
1136;SDS011;557;48.466;7.950;2023-04-01T07:01:20;6.10;;;1.00;;
1136;SDS011;557;48.466;7.950;2023-04-01T07:04:11;2.70;;;0.80;;
1136;SDS011;557;48.466;7.950;2023-04-01T07:07:04;5.90;;;1.20;;
1136;SDS011;557;48.466;7.950;2023-04-01T07:10:02;3.80;;;0.93;;
1136;SDS011;557;48.466;7.950;2023-04-01T07:12:53;2.93;;;1.20;;
1136;SDS011;557;48.466;7.950;2023-04-01T07:15:43;3.00;;;0.70;;
1136;SDS011;557;48.466;7.950;2023-04-01T07:18:37;3.53;;;1.37;;
1136;SDS011;557;48.466;7.950;2023-04-01T07:21:29;6.40;;;1.00;;
1136;SDS011;557;48.466;7.950;2023-04-01T07:24:21;3.80;;;1.10;;
1136;SDS011;557;48.466;7.950;2023-04-01T07:27:14;2.67;;;1.00;;
1136;SDS011;557;48.466;7.950;2023-04-01T07:30:01;3.53;;;0.83;;
1136;SDS011;557;48.466;7.950;2023-04-01T07:32:51;1.47;;;0.73;;
1136;SDS011;557;48.466;7.950;2023-04-01T07:35:49;2.00;;;0.80;;
1136;SDS011;557;48.466;7.950;2023-04-01T07:38:45;2.27;;;0.70;;
1136;SDS011;557;48.466;7.950;2023-04-01T07:41:41;2.00;;;0.70;;
1136;SDS011;557;48.466;7.950;2023-04-01T07:44:37;7.27;;;1.90;;
1136;SDS011;557;48.466;7.950;2023-04-01T07:47:34;2.43;;;0.97;;
1136;SDS011;557;48.466;7.950;2023-04-01T07:50:43;3.27;;;0.80;;
1136;SDS011;557;48.466;7.950;2023-04-01T07:53:38;2.93;;;1.00;;
1136;SDS011;557;48.466;7.950;2023-04-01T07:56:34;2.70;;;0.73;;
1136;SDS011;557;48.466;7.950;2023-04-01T07:59:27;1.40;;;0.80;;
1136;SDS011;557;48.466;7.950;2023-04-01T08:02:28;2.50;;;0.90;;
1136;SDS011;557;48.466;7.950;2023-04-01T08:05:27;3.97;;;1.00;;
1136;SDS011;557;48.466;7.950;2023-04-01T08:08:19;2.13;;;0.50;;
1136;SDS011;557;48.466;7.950;2023-04-01T08:11:21;1.70;;;0.70;;
1136;SDS011;557;48.466;7.950;2023-04-01T08:14:17;3.10;;;1.07;;
1136;SDS011;557;48.466;7.950;2023-04-01T08:17:12;2.50;;;0.70;;
1136;SDS011;557;48.466;7.950;2023-04-01T08:20:21;2.80;;;0.87;;
1136;SDS011;557;48.466;7.950;2023-04-01T08:23:15;2.17;;;0.80;;
1136;SDS011;557;48.466;7.950;2023-04-01T08:26:07;2.20;;;0.70;;
1136;SDS011;557;48.466;7.950;2023-04-01T08:29:01;2.57;;;0.80;;
1136;SDS011;557;48.466;7.950;2023-04-01T08:31:51;3.17;;;0.80;;
1136;SDS011;557;48.466;7.950;2023-04-01T08:34:43;2.67;;;0.80;;
1136;SDS011;557;48.466;7.950;2023-04-01T08:37:39;1.33;;;0.57;;
1136;SDS011;557;48.466;7.950;2023-04-01T08:40:41;2.50;;;0.67;;
1136;SDS011;557;48.466;7.950;2023-04-01T08:47:20;3.07;;;0.83;;
1136;SDS011;557;48.466;7.950;2023-04-01T08:50:29;2.07;;;0.70;;
1136;SDS011;557;48.466;7.950;2023-04-01T08:53:43;1.60;;;0.70;;
1136;SDS011;557;48.466;7.950;2023-04-01T08:56:51;2.63;;;0.90;;
1136;SDS011;557;48.466;7.950;2023-04-01T08:59:47;3.60;;;0.90;;
1136;SDS011;557;48.466;7.950;2023-04-01T09:02:49;2.17;;;1.13;;
1136;SDS011;557;48.466;7.950;2023-04-01T09:05:45;1.93;;;0.70;;
1136;SDS011;557;48.466;7.950;2023-04-01T09:08:57;2.03;;;0.80;;
1136;SDS011;557;48.466;7.950;2023-04-01T09:15:35;2.60;;;1.07;;
1136;SDS011;557;48.466;7.950;2023-04-01T09:18:39;2.73;;;0.83;;
1136;SDS011;557;48.466;7.950;2023-04-01T09:21:57;1.60;;;0.80;;
1136;SDS011;557;48.466;7.950;2023-04-01T09:25:14;2.73;;;1.13;;
1136;SDS011;557;48.466;7.950;2023-04-01T09:28:19;2.90;;;1.07;;
1136;SDS011;557;48.466;7.950;2023-04-01T09:31:26;1.70;;;0.97;;
1136;SDS011;557;48.466;7.950;2023-04-01T09:34:51;1.80;;;0.80;;
1136;SDS011;557;48.466;7.950;2023-04-01T09:37:45;5.20;;;1.13;;
1136;SDS011;557;48.466;7.950;2023-04-01T09:40:44;1.60;;;0.70;;
1136;SDS011;557;48.466;7.950;2023-04-01T09:43:46;2.50;;;1.00;;
1136;SDS011;557;48.466;7.950;2023-04-01T09:46:48;2.03;;;0.80;;
1136;SDS011;557;48.466;7.950;2023-04-01T09:49:59;4.37;;;1.20;;
1136;SDS011;557;48.466;7.950;2023-04-01T09:53:07;3.70;;;1.07;;
1136;SDS011;557;48.466;7.950;2023-04-01T09:59:54;1.90;;;0.93;;
1136;SDS011;557;48.466;7.950;2023-04-01T10:03:14;2.73;;;1.83;;
1136;SDS011;557;48.466;7.950;2023-04-01T10:06:49;2.73;;;0.70;;
1136;SDS011;557;48.466;7.950;2023-04-01T10:10:15;3.27;;;0.87;;
1136;SDS011;557;48.466;7.950;2023-04-01T10:13:30;1.90;;;0.57;;
1136;SDS011;557;48.466;7.950;2023-04-01T10:16:45;4.07;;;2.00;;
1136;SDS011;557;48.466;7.950;2023-04-01T10:20:27;5.43;;;1.00;;
1136;SDS011;557;48.466;7.950;2023-04-01T10:27:15;2.23;;;1.07;;
1136;SDS011;557;48.466;7.950;2023-04-01T10:30:24;2.03;;;1.00;;
1136;SDS011;557;48.466;7.950;2023-04-01T10:36:56;3.43;;;1.70;;
1136;SDS011;557;48.466;7.950;2023-04-01T10:53:27;2.07;;;0.70;;
1136;SDS011;557;48.466;7.950;2023-04-01T10:56:36;1.60;;;0.77;;
1136;SDS011;557;48.466;7.950;2023-04-01T10:59:42;3.40;;;1.47;;
1136;SDS011;557;48.466;7.950;2023-04-01T11:06:47;6.83;;;2.70;;
1136;SDS011;557;48.466;7.950;2023-04-01T11:10:09;1.67;;;0.90;;
1136;SDS011;557;48.466;7.950;2023-04-01T11:16:52;2.13;;;1.00;;
1136;SDS011;557;48.466;7.950;2023-04-01T11:23:54;3.83;;;1.67;;
1136;SDS011;557;48.466;7.950;2023-04-01T11:26:52;1.63;;;1.00;;
1136;SDS011;557;48.466;7.950;2023-04-01T11:30:02;2.23;;;0.97;;
1136;SDS011;557;48.466;7.950;2023-04-01T11:33:03;6.23;;;1.60;;
1136;SDS011;557;48.466;7.950;2023-04-01T11:35:58;2.50;;;1.53;;
1136;SDS011;557;48.466;7.950;2023-04-01T11:39:13;1.60;;;0.80;;
1136;SDS011;557;48.466;7.950;2023-04-01T11:42:15;3.10;;;1.10;;
1136;SDS011;557;48.466;7.950;2023-04-01T11:45:14;4.67;;;1.00;;
1136;SDS011;557;48.466;7.950;2023-04-01T11:48:13;2.87;;;0.83;;
1136;SDS011;557;48.466;7.950;2023-04-01T11:54:46;3.40;;;1.77;;
1136;SDS011;557;48.466;7.950;2023-04-01T11:58:04;5.07;;;1.70;;
1136;SDS011;557;48.466;7.950;2023-04-01T12:01:10;5.07;;;1.30;;
1136;SDS011;557;48.466;7.950;2023-04-01T12:07:55;3.50;;;1.30;;
1136;SDS011;557;48.466;7.950;2023-04-01T12:10:52;2.80;;;1.23;;
1136;SDS011;557;48.466;7.950;2023-04-01T12:13:48;3.13;;;1.43;;
1136;SDS011;557;48.466;7.950;2023-04-01T12:16:46;1.70;;;0.90;;
1136;SDS011;557;48.466;7.950;2023-04-01T12:19:42;2.03;;;1.20;;
1136;SDS011;557;48.466;7.950;2023-04-01T12:22:38;2.13;;;1.50;;
1136;SDS011;557;48.466;7.950;2023-04-01T12:25:38;2.77;;;1.00;;
1136;SDS011;557;48.466;7.950;2023-04-01T12:28:49;2.07;;;1.00;;
1136;SDS011;557;48.466;7.950;2023-04-01T12:31:51;2.27;;;0.80;;
1136;SDS011;557;48.466;7.950;2023-04-01T12:34:49;1.60;;;0.63;;
1136;SDS011;557;48.466;7.950;2023-04-01T12:37:55;1.47;;;0.87;;
1136;SDS011;557;48.466;7.950;2023-04-01T12:40:56;2.10;;;0.70;;
1136;SDS011;557;48.466;7.950;2023-04-01T12:47:13;1.73;;;0.80;;
1136;SDS011;557;48.466;7.950;2023-04-01T12:50:16;1.70;;;0.83;;
1136;SDS011;557;48.466;7.950;2023-04-01T12:53:18;2.17;;;1.10;;
1136;SDS011;557;48.466;7.950;2023-04-01T12:56:22;2.73;;;1.00;;
1136;SDS011;557;48.466;7.950;2023-04-01T12:59:23;1.90;;;0.73;;
1136;SDS011;557;48.466;7.950;2023-04-01T13:02:37;2.10;;;0.60;;
1136;SDS011;557;48.466;7.950;2023-04-01T13:05:43;1.77;;;0.77;;
1136;SDS011;557;48.466;7.950;2023-04-01T13:08:52;3.10;;;1.60;;
1136;SDS011;557;48.466;7.950;2023-04-01T13:11:49;1.50;;;0.70;;
1136;SDS011;557;48.466;7.950;2023-04-01T13:14:53;2.80;;;1.10;;
1136;SDS011;557;48.466;7.950;2023-04-01T13:18:00;7.33;;;3.50;;
1136;SDS011;557;48.466;7.950;2023-04-01T13:21:01;2.20;;;0.80;;
1136;SDS011;557;48.466;7.950;2023-04-01T13:23:55;2.50;;;1.50;;
1136;SDS011;557;48.466;7.950;2023-04-01T13:26:52;1.77;;;1.07;;
1136;SDS011;557;48.466;7.950;2023-04-01T13:29:47;2.13;;;0.97;;
1136;SDS011;557;48.466;7.950;2023-04-01T13:32:49;3.20;;;1.23;;
1136;SDS011;557;48.466;7.950;2023-04-01T13:35:43;1.70;;;0.80;;
1136;SDS011;557;48.466;7.950;2023-04-01T13:38:42;2.17;;;1.00;;
1136;SDS011;557;48.466;7.950;2023-04-01T13:45:01;1.40;;;0.60;;
1136;SDS011;557;48.466;7.950;2023-04-01T13:48:17;2.10;;;1.00;;
1136;SDS011;557;48.466;7.950;2023-04-01T13:51:25;3.27;;;0.90;;
1136;SDS011;557;48.466;7.950;2023-04-01T13:54:39;3.87;;;1.00;;
1136;SDS011;557;48.466;7.950;2023-04-01T13:57:43;6.60;;;1.23;;
1136;SDS011;557;48.466;7.950;2023-04-01T14:00:49;3.20;;;1.73;;
1136;SDS011;557;48.466;7.950;2023-04-01T14:04:02;1.70;;;1.20;;
1136;SDS011;557;48.466;7.950;2023-04-01T14:07:08;1.37;;;0.87;;
1136;SDS011;557;48.466;7.950;2023-04-01T14:10:16;2.70;;;1.00;;
1136;SDS011;557;48.466;7.950;2023-04-01T14:13:08;5.10;;;3.60;;
1136;SDS011;557;48.466;7.950;2023-04-01T14:16:12;3.23;;;0.57;;
1136;SDS011;557;48.466;7.950;2023-04-01T14:19:12;3.90;;;0.93;;
1136;SDS011;557;48.466;7.950;2023-04-01T14:22:17;1.77;;;0.57;;
1136;SDS011;557;48.466;7.950;2023-04-01T14:25:21;1.30;;;0.70;;
1136;SDS011;557;48.466;7.950;2023-04-01T14:28:38;2.23;;;1.00;;
1136;SDS011;557;48.466;7.950;2023-04-01T14:31:36;3.47;;;1.10;;
1136;SDS011;557;48.466;7.950;2023-04-01T14:34:48;1.93;;;0.80;;
1136;SDS011;557;48.466;7.950;2023-04-01T14:40:54;4.03;;;1.17;;
1136;SDS011;557;48.466;7.950;2023-04-01T14:44:00;1.80;;;0.80;;
1136;SDS011;557;48.466;7.950;2023-04-01T14:47:11;2.23;;;1.20;;
1136;SDS011;557;48.466;7.950;2023-04-01T14:50:16;1.90;;;0.70;;
1136;SDS011;557;48.466;7.950;2023-04-01T14:53:11;2.80;;;0.83;;
1136;SDS011;557;48.466;7.950;2023-04-01T14:56:09;2.20;;;0.93;;
1136;SDS011;557;48.466;7.950;2023-04-01T14:58:57;2.37;;;1.17;;
1136;SDS011;557;48.466;7.950;2023-04-01T15:01:47;3.30;;;1.27;;
1136;SDS011;557;48.466;7.950;2023-04-01T15:04:54;2.30;;;1.10;;
1136;SDS011;557;48.466;7.950;2023-04-01T15:07:49;2.97;;;1.10;;
1136;SDS011;557;48.466;7.950;2023-04-01T15:11:03;2.33;;;1.10;;
1136;SDS011;557;48.466;7.950;2023-04-01T15:14:18;16.27;;;6.73;;
1136;SDS011;557;48.466;7.950;2023-04-01T15:17:19;15.37;;;8.10;;
1136;SDS011;557;48.466;7.950;2023-04-01T15:20:24;9.47;;;4.20;;
1136;SDS011;557;48.466;7.950;2023-04-01T15:23:32;12.10;;;6.70;;
1136;SDS011;557;48.466;7.950;2023-04-01T15:26:31;4.20;;;2.10;;
1136;SDS011;557;48.466;7.950;2023-04-01T15:29:50;3.00;;;1.47;;
1136;SDS011;557;48.466;7.950;2023-04-01T15:32:57;1.87;;;1.00;;
1136;SDS011;557;48.466;7.950;2023-04-01T15:36:02;4.50;;;1.27;;
1136;SDS011;557;48.466;7.950;2023-04-01T15:38:58;1.60;;;0.90;;
1136;SDS011;557;48.466;7.950;2023-04-01T15:42:04;2.70;;;0.83;;
1136;SDS011;557;48.466;7.950;2023-04-01T15:45:12;1.57;;;0.77;;
1136;SDS011;557;48.466;7.950;2023-04-01T15:48:06;2.27;;;0.70;;
1136;SDS011;557;48.466;7.950;2023-04-01T15:51:14;3.83;;;1.40;;
1136;SDS011;557;48.466;7.950;2023-04-01T15:54:27;4.37;;;1.73;;
1136;SDS011;557;48.466;7.950;2023-04-01T15:57:28;2.07;;;1.10;;
1136;SDS011;557;48.466;7.950;2023-04-01T16:00:23;3.03;;;1.17;;
1136;SDS011;557;48.466;7.950;2023-04-01T16:03:18;2.30;;;1.13;;
1136;SDS011;557;48.466;7.950;2023-04-01T16:06:27;2.63;;;1.33;;
1136;SDS011;557;48.466;7.950;2023-04-01T16:09:31;2.40;;;1.30;;
1136;SDS011;557;48.466;7.950;2023-04-01T16:12:46;1.90;;;1.20;;
1136;SDS011;557;48.466;7.950;2023-04-01T16:15:41;2.30;;;1.30;;
1136;SDS011;557;48.466;7.950;2023-04-01T16:21:52;1.40;;;0.50;;
1136;SDS011;557;48.466;7.950;2023-04-01T16:24:45;1.77;;;0.70;;
1136;SDS011;557;48.466;7.950;2023-04-01T16:27:40;4.47;;;0.70;;
1136;SDS011;557;48.466;7.950;2023-04-01T16:30:34;1.50;;;0.73;;
1136;SDS011;557;48.466;7.950;2023-04-01T16:33:28;1.43;;;0.63;;
1136;SDS011;557;48.466;7.950;2023-04-01T16:36:26;1.40;;;0.60;;
1136;SDS011;557;48.466;7.950;2023-04-01T16:39:25;1.93;;;0.93;;
1136;SDS011;557;48.466;7.950;2023-04-01T16:42:20;3.60;;;0.83;;
1136;SDS011;557;48.466;7.950;2023-04-01T16:45:19;1.83;;;0.77;;
1136;SDS011;557;48.466;7.950;2023-04-01T16:48:13;1.77;;;0.60;;
1136;SDS011;557;48.466;7.950;2023-04-01T16:51:02;1.77;;;0.60;;
1136;SDS011;557;48.466;7.950;2023-04-01T16:54:01;1.80;;;0.80;;
1136;SDS011;557;48.466;7.950;2023-04-01T16:56:55;3.23;;;1.13;;
1136;SDS011;557;48.466;7.950;2023-04-01T16:59:54;1.60;;;0.80;;
1136;SDS011;557;48.466;7.950;2023-04-01T17:02:47;2.00;;;0.83;;
1136;SDS011;557;48.466;7.950;2023-04-01T17:05:52;2.53;;;0.80;;
1136;SDS011;557;48.466;7.950;2023-04-01T17:12:02;1.20;;;0.50;;
1136;SDS011;557;48.466;7.950;2023-04-01T17:14:59;1.80;;;0.93;;
1136;SDS011;557;48.466;7.950;2023-04-01T17:17:55;2.20;;;0.80;;
1136;SDS011;557;48.466;7.950;2023-04-01T17:20:48;2.33;;;1.10;;
1136;SDS011;557;48.466;7.950;2023-04-01T17:23:44;2.20;;;1.30;;
1136;SDS011;557;48.466;7.950;2023-04-01T17:26:38;2.23;;;0.90;;
1136;SDS011;557;48.466;7.950;2023-04-01T17:29:31;2.00;;;0.80;;
1136;SDS011;557;48.466;7.950;2023-04-01T17:32:29;1.60;;;0.80;;
1136;SDS011;557;48.466;7.950;2023-04-01T17:35:27;2.10;;;0.97;;
1136;SDS011;557;48.466;7.950;2023-04-01T17:38:34;1.50;;;1.00;;
1136;SDS011;557;48.466;7.950;2023-04-01T17:41:36;1.73;;;0.80;;
1136;SDS011;557;48.466;7.950;2023-04-01T17:44:44;2.20;;;0.70;;
1136;SDS011;557;48.466;7.950;2023-04-01T17:47:47;2.23;;;1.03;;
1136;SDS011;557;48.466;7.950;2023-04-01T17:50:47;1.40;;;0.73;;
1136;SDS011;557;48.466;7.950;2023-04-01T17:53:44;2.07;;;0.90;;
1136;SDS011;557;48.466;7.950;2023-04-01T17:56:39;2.93;;;1.07;;
1136;SDS011;557;48.466;7.950;2023-04-01T17:59:36;2.70;;;1.20;;
1136;SDS011;557;48.466;7.950;2023-04-01T18:02:27;4.37;;;2.67;;
1136;SDS011;557;48.466;7.950;2023-04-01T18:05:30;3.77;;;2.00;;
1136;SDS011;557;48.466;7.950;2023-04-01T18:08:46;1.87;;;0.50;;
1136;SDS011;557;48.466;7.950;2023-04-01T18:11:49;1.50;;;0.80;;
1136;SDS011;557;48.466;7.950;2023-04-01T18:14:50;1.87;;;0.67;;
1136;SDS011;557;48.466;7.950;2023-04-01T18:17:57;18.80;;;6.30;;
1136;SDS011;557;48.466;7.950;2023-04-01T18:20:55;5.10;;;2.70;;
1136;SDS011;557;48.466;7.950;2023-04-01T18:23:51;3.30;;;1.67;;
1136;SDS011;557;48.466;7.950;2023-04-01T18:26:42;2.93;;;1.47;;
1136;SDS011;557;48.466;7.950;2023-04-01T18:29:35;2.47;;;1.67;;
1136;SDS011;557;48.466;7.950;2023-04-01T18:32:28;2.23;;;1.17;;
1136;SDS011;557;48.466;7.950;2023-04-01T18:35:27;2.03;;;1.30;;
1136;SDS011;557;48.466;7.950;2023-04-01T18:38:20;2.90;;;1.57;;
1136;SDS011;557;48.466;7.950;2023-04-01T18:41:15;3.37;;;2.20;;
1136;SDS011;557;48.466;7.950;2023-04-01T18:44:13;2.80;;;1.70;;
1136;SDS011;557;48.466;7.950;2023-04-01T18:47:15;4.87;;;1.83;;
1136;SDS011;557;48.466;7.950;2023-04-01T18:50:13;5.30;;;2.60;;
1136;SDS011;557;48.466;7.950;2023-04-01T18:53:15;4.57;;;2.67;;
1136;SDS011;557;48.466;7.950;2023-04-01T18:56:08;6.00;;;2.60;;
1136;SDS011;557;48.466;7.950;2023-04-01T18:59:03;6.63;;;3.13;;
1136;SDS011;557;48.466;7.950;2023-04-01T19:01:57;6.10;;;2.93;;
1136;SDS011;557;48.466;7.950;2023-04-01T19:04:52;8.73;;;3.70;;
1136;SDS011;557;48.466;7.950;2023-04-01T19:07:48;7.10;;;3.90;;
1136;SDS011;557;48.466;7.950;2023-04-01T19:10:39;10.50;;;3.80;;
1136;SDS011;557;48.466;7.950;2023-04-01T19:13:34;19.20;;;10.70;;
1136;SDS011;557;48.466;7.950;2023-04-01T19:16:35;13.93;;;6.43;;
1136;SDS011;557;48.466;7.950;2023-04-01T19:19:34;9.47;;;4.27;;
1136;SDS011;557;48.466;7.950;2023-04-01T19:22:39;6.70;;;4.27;;
1136;SDS011;557;48.466;7.950;2023-04-01T19:25:41;4.27;;;2.20;;
1136;SDS011;557;48.466;7.950;2023-04-01T19:28:38;3.10;;;1.60;;
1136;SDS011;557;48.466;7.950;2023-04-01T19:31:35;5.63;;;2.90;;
1136;SDS011;557;48.466;7.950;2023-04-01T19:34:34;2.50;;;1.73;;
1136;SDS011;557;48.466;7.950;2023-04-01T19:37:32;3.70;;;1.70;;
1136;SDS011;557;48.466;7.950;2023-04-01T19:40:29;2.30;;;1.30;;
1136;SDS011;557;48.466;7.950;2023-04-01T19:43:44;1.60;;;0.83;;
1136;SDS011;557;48.466;7.950;2023-04-01T19:46:41;2.27;;;0.90;;